sensor_id;sensor_type;location;lat;lon;timestamp;P1;durP1;ratioP1;P2;durP2;ratioP2
60241;SDS011;46103;52.076;113.488;2023-03-13T00:04:42;6.50;;;2.17;;
60241;SDS011;46103;52.076;113.488;2023-03-13T00:07:49;3.08;;;1.83;;
60241;SDS011;46103;52.076;113.488;2023-03-13T00:10:57;6.63;;;1.80;;
60241;SDS011;46103;52.076;113.488;2023-03-13T00:14:06;3.90;;;1.90;;
60241;SDS011;46103;52.076;113.488;2023-03-13T00:17:12;7.03;;;2.22;;
60241;SDS011;46103;52.076;113.488;2023-03-13T00:20:18;9.05;;;1.90;;
60241;SDS011;46103;52.076;113.488;2023-03-13T00:23:21;7.95;;;1.95;;
60241;SDS011;46103;52.076;113.488;2023-03-13T00:26:25;8.20;;;2.20;;
60241;SDS011;46103;52.076;113.488;2023-03-13T00:29:31;4.43;;;1.85;;
60241;SDS011;46103;52.076;113.488;2023-03-13T00:32:39;10.48;;;2.58;;
60241;SDS011;46103;52.076;113.488;2023-03-13T00:35:50;6.47;;;2.17;;
60241;SDS011;46103;52.076;113.488;2023-03-13T00:38:55;6.93;;;2.20;;
60241;SDS011;46103;52.076;113.488;2023-03-13T00:42:00;9.05;;;2.10;;
60241;SDS011;46103;52.076;113.488;2023-03-13T00:45:06;11.68;;;2.15;;
60241;SDS011;46103;52.076;113.488;2023-03-13T00:48:10;6.50;;;2.25;;
60241;SDS011;46103;52.076;113.488;2023-03-13T00:51:16;8.57;;;2.20;;
60241;SDS011;46103;52.076;113.488;2023-03-13T00:54:23;5.82;;;2.08;;
60241;SDS011;46103;52.076;113.488;2023-03-13T00:57:29;3.80;;;1.60;;
60241;SDS011;46103;52.076;113.488;2023-03-13T01:00:36;4.28;;;2.50;;
60241;SDS011;46103;52.076;113.488;2023-03-13T01:03:42;6.30;;;2.55;;
60241;SDS011;46103;52.076;113.488;2023-03-13T01:06:49;6.35;;;2.20;;
60241;SDS011;46103;52.076;113.488;2023-03-13T01:09:55;3.17;;;1.60;;
60241;SDS011;46103;52.076;113.488;2023-03-13T01:13:03;7.63;;;2.15;;
60241;SDS011;46103;52.076;113.488;2023-03-13T01:16:18;9.27;;;2.47;;
60241;SDS011;46103;52.076;113.488;2023-03-13T01:19:25;5.45;;;1.90;;
60241;SDS011;46103;52.076;113.488;2023-03-13T01:22:38;4.43;;;2.00;;
60241;SDS011;46103;52.076;113.488;2023-03-13T01:25:42;4.85;;;1.65;;
60241;SDS011;46103;52.076;113.488;2023-03-13T01:28:47;6.00;;;1.98;;
60241;SDS011;46103;52.076;113.488;2023-03-13T01:31:54;7.70;;;1.80;;
60241;SDS011;46103;52.076;113.488;2023-03-13T01:34:59;4.13;;;1.40;;
60241;SDS011;46103;52.076;113.488;2023-03-13T01:38:05;5.45;;;1.88;;
60241;SDS011;46103;52.076;113.488;2023-03-13T01:44:26;3.80;;;1.45;;
60241;SDS011;46103;52.076;113.488;2023-03-13T01:47:32;5.82;;;2.28;;
60241;SDS011;46103;52.076;113.488;2023-03-13T01:50:43;6.75;;;2.30;;
60241;SDS011;46103;52.076;113.488;2023-03-13T01:53:59;3.05;;;1.67;;
60241;SDS011;46103;52.076;113.488;2023-03-13T01:57:20;6.45;;;2.40;;
60241;SDS011;46103;52.076;113.488;2023-03-13T02:00:32;16.38;;;2.72;;
60241;SDS011;46103;52.076;113.488;2023-03-13T02:03:43;7.50;;;1.92;;
60241;SDS011;46103;52.076;113.488;2023-03-13T02:06:48;7.95;;;2.15;;
60241;SDS011;46103;52.076;113.488;2023-03-13T02:09:59;8.65;;;2.33;;
60241;SDS011;46103;52.076;113.488;2023-03-13T02:13:04;6.90;;;2.72;;
60241;SDS011;46103;52.076;113.488;2023-03-13T02:16:08;9.68;;;2.95;;
60241;SDS011;46103;52.076;113.488;2023-03-13T02:19:23;9.90;;;2.65;;
60241;SDS011;46103;52.076;113.488;2023-03-13T02:22:52;13.27;;;5.63;;
60241;SDS011;46103;52.076;113.488;2023-03-13T02:26:07;11.55;;;5.05;;
60241;SDS011;46103;52.076;113.488;2023-03-13T02:29:12;9.50;;;3.45;;
60241;SDS011;46103;52.076;113.488;2023-03-13T02:32:20;6.35;;;2.25;;
60241;SDS011;46103;52.076;113.488;2023-03-13T02:35:26;9.10;;;2.20;;
60241;SDS011;46103;52.076;113.488;2023-03-13T02:38:33;6.22;;;3.05;;
60241;SDS011;46103;52.076;113.488;2023-03-13T02:41:42;7.22;;;3.00;;
60241;SDS011;46103;52.076;113.488;2023-03-13T02:44:48;8.68;;;1.95;;
60241;SDS011;46103;52.076;113.488;2023-03-13T02:47:53;3.50;;;1.77;;
60241;SDS011;46103;52.076;113.488;2023-03-13T02:50:58;5.22;;;1.85;;
60241;SDS011;46103;52.076;113.488;2023-03-13T02:54:04;6.00;;;2.13;;
60241;SDS011;46103;52.076;113.488;2023-03-13T02:57:12;8.50;;;2.75;;
60241;SDS011;46103;52.076;113.488;2023-03-13T03:00:17;17.20;;;2.83;;
60241;SDS011;46103;52.076;113.488;2023-03-13T03:03:21;5.90;;;1.80;;
60241;SDS011;46103;52.076;113.488;2023-03-13T03:06:25;4.90;;;2.13;;
60241;SDS011;46103;52.076;113.488;2023-03-13T03:09:29;13.45;;;4.57;;
60241;SDS011;46103;52.076;113.488;2023-03-13T03:12:39;8.00;;;2.33;;
60241;SDS011;46103;52.076;113.488;2023-03-13T03:15:43;6.35;;;2.92;;
60241;SDS011;46103;52.076;113.488;2023-03-13T03:18:47;10.70;;;2.15;;
60241;SDS011;46103;52.076;113.488;2023-03-13T03:21:53;5.07;;;2.22;;
60241;SDS011;46103;52.076;113.488;2023-03-13T03:24:58;5.57;;;2.95;;
60241;SDS011;46103;52.076;113.488;2023-03-13T03:28:04;11.32;;;2.22;;
60241;SDS011;46103;52.076;113.488;2023-03-13T03:31:11;9.07;;;2.60;;
60241;SDS011;46103;52.076;113.488;2023-03-13T03:34:17;9.65;;;2.22;;
60241;SDS011;46103;52.076;113.488;2023-03-13T03:37:23;5.50;;;1.88;;
60241;SDS011;46103;52.076;113.488;2023-03-13T03:40:28;7.35;;;1.95;;
60241;SDS011;46103;52.076;113.488;2023-03-13T03:43:33;7.32;;;2.42;;
60241;SDS011;46103;52.076;113.488;2023-03-13T03:46:39;8.13;;;2.40;;
60241;SDS011;46103;52.076;113.488;2023-03-13T03:49:43;9.32;;;2.17;;
60241;SDS011;46103;52.076;113.488;2023-03-13T03:52:48;6.00;;;1.75;;
60241;SDS011;46103;52.076;113.488;2023-03-13T03:55:53;4.05;;;2.00;;
60241;SDS011;46103;52.076;113.488;2023-03-13T03:58:57;6.07;;;1.67;;
60241;SDS011;46103;52.076;113.488;2023-03-13T04:02:11;6.35;;;2.05;;
60241;SDS011;46103;52.076;113.488;2023-03-13T04:05:15;9.00;;;1.55;;
60241;SDS011;46103;52.076;113.488;2023-03-13T04:08:20;5.22;;;1.70;;
60241;SDS011;46103;52.076;113.488;2023-03-13T04:11:24;8.05;;;2.10;;
60241;SDS011;46103;52.076;113.488;2023-03-13T04:14:29;4.80;;;1.67;;
60241;SDS011;46103;52.076;113.488;2023-03-13T04:17:35;7.85;;;1.85;;
60241;SDS011;46103;52.076;113.488;2023-03-13T04:20:40;12.25;;;1.80;;
60241;SDS011;46103;52.076;113.488;2023-03-13T04:23:45;3.25;;;1.50;;
60241;SDS011;46103;52.076;113.488;2023-03-13T04:26:50;6.93;;;1.63;;
60241;SDS011;46103;52.076;113.488;2023-03-13T04:29:54;4.85;;;1.67;;
60241;SDS011;46103;52.076;113.488;2023-03-13T04:33:17;5.10;;;1.70;;
60241;SDS011;46103;52.076;113.488;2023-03-13T04:36:47;6.60;;;1.92;;
60241;SDS011;46103;52.076;113.488;2023-03-13T04:40:26;3.45;;;1.75;;
60241;SDS011;46103;52.076;113.488;2023-03-13T04:43:47;6.18;;;2.10;;
60241;SDS011;46103;52.076;113.488;2023-03-13T04:47:21;4.70;;;1.60;;
60241;SDS011;46103;52.076;113.488;2023-03-13T04:51:00;3.80;;;1.40;;
60241;SDS011;46103;52.076;113.488;2023-03-13T04:54:22;5.30;;;1.80;;
60241;SDS011;46103;52.076;113.488;2023-03-13T04:57:25;10.13;;;1.88;;
60241;SDS011;46103;52.076;113.488;2023-03-13T05:00:49;5.85;;;2.50;;
60241;SDS011;46103;52.076;113.488;2023-03-13T05:04:18;3.60;;;1.60;;
60241;SDS011;46103;52.076;113.488;2023-03-13T05:09:14;3.58;;;1.80;;
60241;SDS011;46103;52.076;113.488;2023-03-13T05:13:39;5.88;;;2.17;;
60241;SDS011;46103;52.076;113.488;2023-03-13T05:16:59;4.53;;;1.83;;
60241;SDS011;46103;52.076;113.488;2023-03-13T05:20:30;4.65;;;1.85;;
60241;SDS011;46103;52.076;113.488;2023-03-13T05:23:43;4.22;;;1.70;;
60241;SDS011;46103;52.076;113.488;2023-03-13T05:27:31;4.43;;;1.67;;
60241;SDS011;46103;52.076;113.488;2023-03-13T05:31:11;5.60;;;1.60;;
60241;SDS011;46103;52.076;113.488;2023-03-13T05:34:41;6.03;;;1.75;;
60241;SDS011;46103;52.076;113.488;2023-03-13T05:37:58;6.40;;;1.70;;
60241;SDS011;46103;52.076;113.488;2023-03-13T05:41:32;5.43;;;1.80;;
60241;SDS011;46103;52.076;113.488;2023-03-13T05:44:56;6.00;;;2.17;;
60241;SDS011;46103;52.076;113.488;2023-03-13T05:48:27;5.05;;;1.80;;
60241;SDS011;46103;52.076;113.488;2023-03-13T05:51:54;4.72;;;1.80;;
60241;SDS011;46103;52.076;113.488;2023-03-13T05:55:18;6.95;;;1.83;;
60241;SDS011;46103;52.076;113.488;2023-03-13T05:58:41;11.43;;;2.13;;
60241;SDS011;46103;52.076;113.488;2023-03-13T06:01:52;11.05;;;2.40;;
60241;SDS011;46103;52.076;113.488;2023-03-13T06:05:05;8.75;;;2.85;;
60241;SDS011;46103;52.076;113.488;2023-03-13T06:08:11;8.40;;;2.30;;
60241;SDS011;46103;52.076;113.488;2023-03-13T06:12:51;4.95;;;2.10;;
60241;SDS011;46103;52.076;113.488;2023-03-13T06:16:19;7.95;;;2.08;;
60241;SDS011;46103;52.076;113.488;2023-03-13T06:19:25;12.32;;;2.65;;
60241;SDS011;46103;52.076;113.488;2023-03-13T06:22:30;6.32;;;2.67;;
60241;SDS011;46103;52.076;113.488;2023-03-13T06:25:48;9.88;;;2.83;;
60241;SDS011;46103;52.076;113.488;2023-03-13T06:29:30;6.90;;;2.58;;
60241;SDS011;46103;52.076;113.488;2023-03-13T06:32:38;7.75;;;2.50;;
60241;SDS011;46103;52.076;113.488;2023-03-13T06:35:43;6.25;;;2.47;;
60241;SDS011;46103;52.076;113.488;2023-03-13T06:39:00;4.95;;;2.50;;
60241;SDS011;46103;52.076;113.488;2023-03-13T06:42:19;6.15;;;2.60;;
60241;SDS011;46103;52.076;113.488;2023-03-13T06:45:28;10.30;;;3.30;;
60241;SDS011;46103;52.076;113.488;2023-03-13T06:48:41;7.63;;;3.38;;
60241;SDS011;46103;52.076;113.488;2023-03-13T06:52:04;9.77;;;3.08;;
60241;SDS011;46103;52.076;113.488;2023-03-13T06:55:12;9.80;;;3.22;;
60241;SDS011;46103;52.076;113.488;2023-03-13T06:58:19;8.17;;;2.77;;
60241;SDS011;46103;52.076;113.488;2023-03-13T07:01:35;8.85;;;3.17;;
60241;SDS011;46103;52.076;113.488;2023-03-13T07:04:53;12.13;;;4.22;;
60241;SDS011;46103;52.076;113.488;2023-03-13T07:08:02;11.43;;;4.30;;
60241;SDS011;46103;52.076;113.488;2023-03-13T07:11:29;17.58;;;4.95;;
60241;SDS011;46103;52.076;113.488;2023-03-13T07:14:35;13.63;;;4.90;;
60241;SDS011;46103;52.076;113.488;2023-03-13T07:17:42;14.93;;;5.00;;
60241;SDS011;46103;52.076;113.488;2023-03-13T07:21:02;10.15;;;3.80;;
60241;SDS011;46103;52.076;113.488;2023-03-13T07:24:14;13.80;;;4.82;;
60241;SDS011;46103;52.076;113.488;2023-03-13T07:27:18;13.32;;;5.13;;
60241;SDS011;46103;52.076;113.488;2023-03-13T07:30:39;10.25;;;4.18;;
60241;SDS011;46103;52.076;113.488;2023-03-13T07:33:53;16.27;;;4.97;;
60241;SDS011;46103;52.076;113.488;2023-03-13T07:37:24;21.02;;;5.57;;
60241;SDS011;46103;52.076;113.488;2023-03-13T07:40:48;17.90;;;5.75;;
60241;SDS011;46103;52.076;113.488;2023-03-13T07:44:01;16.80;;;6.10;;
60241;SDS011;46103;52.076;113.488;2023-03-13T07:47:09;14.35;;;5.57;;
60241;SDS011;46103;52.076;113.488;2023-03-13T07:50:28;14.07;;;5.82;;
60241;SDS011;46103;52.076;113.488;2023-03-13T07:53:48;19.42;;;6.13;;
60241;SDS011;46103;52.076;113.488;2023-03-13T07:56:55;19.13;;;7.05;;
60241;SDS011;46103;52.076;113.488;2023-03-13T08:00:02;17.95;;;7.43;;
60241;SDS011;46103;52.076;113.488;2023-03-13T08:03:28;20.25;;;6.82;;
60241;SDS011;46103;52.076;113.488;2023-03-13T08:06:49;18.58;;;5.85;;
60241;SDS011;46103;52.076;113.488;2023-03-13T08:09:57;18.20;;;5.50;;
60241;SDS011;46103;52.076;113.488;2023-03-13T08:13:03;14.07;;;4.95;;
60241;SDS011;46103;52.076;113.488;2023-03-13T08:16:13;9.77;;;4.18;;
60241;SDS011;46103;52.076;113.488;2023-03-13T08:19:24;11.02;;;3.80;;
60241;SDS011;46103;52.076;113.488;2023-03-13T08:22:32;12.55;;;4.47;;
60241;SDS011;46103;52.076;113.488;2023-03-13T08:25:52;13.90;;;4.97;;
60241;SDS011;46103;52.076;113.488;2023-03-13T08:28:59;11.15;;;3.72;;
60241;SDS011;46103;52.076;113.488;2023-03-13T08:32:13;14.45;;;3.85;;
60241;SDS011;46103;52.076;113.488;2023-03-13T08:35:30;9.30;;;3.70;;
60241;SDS011;46103;52.076;113.488;2023-03-13T08:38:34;10.30;;;3.92;;
60241;SDS011;46103;52.076;113.488;2023-03-13T08:41:38;14.07;;;3.85;;
60241;SDS011;46103;52.076;113.488;2023-03-13T08:44:43;9.15;;;3.50;;
60241;SDS011;46103;52.076;113.488;2023-03-13T08:47:50;11.40;;;4.03;;
60241;SDS011;46103;52.076;113.488;2023-03-13T08:50:59;10.73;;;4.22;;
60241;SDS011;46103;52.076;113.488;2023-03-13T08:54:12;16.63;;;5.50;;
60241;SDS011;46103;52.076;113.488;2023-03-13T08:57:19;12.68;;;4.65;;
60241;SDS011;46103;52.076;113.488;2023-03-13T09:00:27;16.48;;;9.00;;
60241;SDS011;46103;52.076;113.488;2023-03-13T09:03:31;13.65;;;5.25;;
60241;SDS011;46103;52.076;113.488;2023-03-13T09:06:36;17.90;;;5.00;;
60241;SDS011;46103;52.076;113.488;2023-03-13T09:09:40;12.32;;;4.30;;
60241;SDS011;46103;52.076;113.488;2023-03-13T09:12:43;13.98;;;4.63;;
60241;SDS011;46103;52.076;113.488;2023-03-13T09:19:00;12.43;;;4.97;;
60241;SDS011;46103;52.076;113.488;2023-03-13T09:22:04;12.88;;;5.22;;
60241;SDS011;46103;52.076;113.488;2023-03-13T09:25:08;10.57;;;4.75;;
60241;SDS011;46103;52.076;113.488;2023-03-13T09:28:12;10.50;;;4.63;;
60241;SDS011;46103;52.076;113.488;2023-03-13T09:31:17;10.98;;;4.40;;
60241;SDS011;46103;52.076;113.488;2023-03-13T09:34:22;13.60;;;4.90;;
60241;SDS011;46103;52.076;113.488;2023-03-13T09:37:27;13.18;;;5.68;;
60241;SDS011;46103;52.076;113.488;2023-03-13T09:40:35;14.38;;;6.00;;
60241;SDS011;46103;52.076;113.488;2023-03-13T09:47:20;10.98;;;4.45;;
60241;SDS011;46103;52.076;113.488;2023-03-13T09:50:53;14.10;;;3.53;;
60241;SDS011;46103;52.076;113.488;2023-03-13T09:57:36;21.92;;;5.65;;
60241;SDS011;46103;52.076;113.488;2023-03-13T10:00:56;17.33;;;5.47;;
60241;SDS011;46103;52.076;113.488;2023-03-13T10:07:22;12.43;;;4.20;;
60241;SDS011;46103;52.076;113.488;2023-03-13T10:10:39;18.38;;;6.22;;
60241;SDS011;46103;52.076;113.488;2023-03-13T10:13:47;15.32;;;4.85;;
60241;SDS011;46103;52.076;113.488;2023-03-13T10:20:21;53.05;;;17.33;;
60241;SDS011;46103;52.076;113.488;2023-03-13T10:23:45;43.58;;;15.85;;
60241;SDS011;46103;52.076;113.488;2023-03-13T10:26:55;56.58;;;20.55;;
60241;SDS011;46103;52.076;113.488;2023-03-13T10:29:59;52.05;;;19.83;;
60241;SDS011;46103;52.076;113.488;2023-03-13T10:36:15;36.85;;;14.88;;
60241;SDS011;46103;52.076;113.488;2023-03-13T10:39:18;55.33;;;20.73;;
60241;SDS011;46103;52.076;113.488;2023-03-13T10:42:30;61.30;;;23.20;;
60241;SDS011;46103;52.076;113.488;2023-03-13T10:45:38;91.82;;;27.90;;
60241;SDS011;46103;52.076;113.488;2023-03-13T10:48:41;79.15;;;28.13;;
60241;SDS011;46103;52.076;113.488;2023-03-13T10:51:47;66.00;;;24.30;;
60241;SDS011;46103;52.076;113.488;2023-03-13T10:54:59;59.72;;;21.52;;
60241;SDS011;46103;52.076;113.488;2023-03-13T10:58:04;65.43;;;22.48;;
60241;SDS011;46103;52.076;113.488;2023-03-13T11:01:25;51.53;;;19.55;;
60241;SDS011;46103;52.076;113.488;2023-03-13T11:04:36;42.97;;;17.25;;
60241;SDS011;46103;52.076;113.488;2023-03-13T11:07:41;42.38;;;16.45;;
60241;SDS011;46103;52.076;113.488;2023-03-13T11:10:57;43.10;;;15.30;;
60241;SDS011;46103;52.076;113.488;2023-03-13T11:14:06;34.67;;;13.73;;
60241;SDS011;46103;52.076;113.488;2023-03-13T11:17:37;33.15;;;12.70;;
60241;SDS011;46103;52.076;113.488;2023-03-13T11:20:44;39.72;;;12.52;;
60241;SDS011;46103;52.076;113.488;2023-03-13T11:23:57;39.80;;;14.68;;
60241;SDS011;46103;52.076;113.488;2023-03-13T11:33:50;49.70;;;17.33;;
60241;SDS011;46103;52.076;113.488;2023-03-13T11:37:01;50.53;;;19.63;;
60241;SDS011;46103;52.076;113.488;2023-03-13T12:00:33;34.00;;;14.40;;
60241;SDS011;46103;52.076;113.488;2023-03-13T12:03:52;38.00;;;14.57;;
60241;SDS011;46103;52.076;113.488;2023-03-13T12:13:33;35.65;;;13.07;;
60241;SDS011;46103;52.076;113.488;2023-03-13T12:19:57;28.95;;;10.30;;
60241;SDS011;46103;52.076;113.488;2023-03-13T12:24:09;41.40;;;14.18;;
60241;SDS011;46103;52.076;113.488;2023-03-13T12:27:12;37.55;;;14.90;;
60241;SDS011;46103;52.076;113.488;2023-03-13T12:33:43;38.25;;;13.90;;
60241;SDS011;46103;52.076;113.488;2023-03-13T12:43:48;43.47;;;16.65;;
60241;SDS011;46103;52.076;113.488;2023-03-13T12:47:11;50.65;;;18.75;;
60241;SDS011;46103;52.076;113.488;2023-03-13T13:00:24;82.20;;;29.23;;
60241;SDS011;46103;52.076;113.488;2023-03-13T13:03:47;74.88;;;27.55;;
60241;SDS011;46103;52.076;113.488;2023-03-13T13:16:19;103.30;;;34.70;;
60241;SDS011;46103;52.076;113.488;2023-03-13T13:25:39;108.82;;;35.80;;
60241;SDS011;46103;52.076;113.488;2023-03-13T13:28:43;100.22;;;33.05;;
60241;SDS011;46103;52.076;113.488;2023-03-13T13:38:31;61.38;;;21.88;;
60241;SDS011;46103;52.076;113.488;2023-03-13T13:41:38;51.53;;;20.00;;
60241;SDS011;46103;52.076;113.488;2023-03-13T13:51:37;41.45;;;14.85;;
60241;SDS011;46103;52.076;113.488;2023-03-13T13:57:48;38.60;;;14.55;;
60241;SDS011;46103;52.076;113.488;2023-03-13T14:01:04;32.75;;;14.23;;
60241;SDS011;46103;52.076;113.488;2023-03-13T14:04:23;39.30;;;15.77;;
60241;SDS011;46103;52.076;113.488;2023-03-13T14:10:44;30.60;;;12.13;;
60241;SDS011;46103;52.076;113.488;2023-03-13T14:17:29;28.65;;;10.32;;
60241;SDS011;46103;52.076;113.488;2023-03-13T14:20:36;26.02;;;10.00;;
60241;SDS011;46103;52.076;113.488;2023-03-13T14:23:42;30.45;;;10.88;;
60241;SDS011;46103;52.076;113.488;2023-03-13T14:26:47;27.02;;;10.43;;
60241;SDS011;46103;52.076;113.488;2023-03-13T14:30:04;24.50;;;9.90;;
60241;SDS011;46103;52.076;113.488;2023-03-13T14:33:13;20.25;;;8.35;;
60241;SDS011;46103;52.076;113.488;2023-03-13T14:36:17;26.98;;;9.55;;
60241;SDS011;46103;52.076;113.488;2023-03-13T14:43:16;28.00;;;9.05;;
60241;SDS011;46103;52.076;113.488;2023-03-13T14:46:41;29.08;;;9.52;;
60241;SDS011;46103;52.076;113.488;2023-03-13T14:49:45;30.92;;;11.60;;
60241;SDS011;46103;52.076;113.488;2023-03-13T14:52:51;43.03;;;13.20;;
60241;SDS011;46103;52.076;113.488;2023-03-13T14:56:13;43.40;;;12.43;;
60241;SDS011;46103;52.076;113.488;2023-03-13T14:59:23;52.88;;;15.48;;
60241;SDS011;46103;52.076;113.488;2023-03-13T15:02:30;55.47;;;17.23;;
60241;SDS011;46103;52.076;113.488;2023-03-13T15:05:34;58.10;;;18.30;;
60241;SDS011;46103;52.076;113.488;2023-03-13T15:08:39;36.08;;;13.90;;
60241;SDS011;46103;52.076;113.488;2023-03-13T15:15:01;33.80;;;12.77;;
60241;SDS011;46103;52.076;113.488;2023-03-13T15:18:24;57.30;;;21.55;;
60241;SDS011;46103;52.076;113.488;2023-03-13T15:21:32;81.35;;;28.50;;
60241;SDS011;46103;52.076;113.488;2023-03-13T15:24:36;87.50;;;28.23;;
60241;SDS011;46103;52.076;113.488;2023-03-13T15:27:39;78.78;;;27.50;;
60241;SDS011;46103;52.076;113.488;2023-03-13T15:30:43;95.00;;;31.52;;
60241;SDS011;46103;52.076;113.488;2023-03-13T15:33:47;95.80;;;35.13;;
60241;SDS011;46103;52.076;113.488;2023-03-13T15:36:58;101.90;;;33.50;;
60241;SDS011;46103;52.076;113.488;2023-03-13T15:40:04;91.35;;;30.35;;
60241;SDS011;46103;52.076;113.488;2023-03-13T15:43:10;87.53;;;31.83;;
60241;SDS011;46103;52.076;113.488;2023-03-13T15:46:14;85.03;;;31.33;;
60241;SDS011;46103;52.076;113.488;2023-03-13T15:49:18;79.95;;;28.70;;
60241;SDS011;46103;52.076;113.488;2023-03-13T15:52:21;96.03;;;31.33;;
60241;SDS011;46103;52.076;113.488;2023-03-13T15:55:25;72.30;;;26.33;;
60241;SDS011;46103;52.076;113.488;2023-03-13T15:58:30;67.97;;;23.88;;
60241;SDS011;46103;52.076;113.488;2023-03-13T16:01:34;61.25;;;20.85;;
60241;SDS011;46103;52.076;113.488;2023-03-13T16:04:37;51.65;;;20.63;;
60241;SDS011;46103;52.076;113.488;2023-03-13T16:07:42;55.70;;;20.42;;
60241;SDS011;46103;52.076;113.488;2023-03-13T16:10:46;55.30;;;21.02;;
60241;SDS011;46103;52.076;113.488;2023-03-13T16:13:51;66.28;;;21.90;;
60241;SDS011;46103;52.076;113.488;2023-03-13T16:16:54;62.92;;;23.88;;
60241;SDS011;46103;52.076;113.488;2023-03-13T16:19:59;49.85;;;21.00;;
60241;SDS011;46103;52.076;113.488;2023-03-13T16:23:02;50.17;;;18.95;;
60241;SDS011;46103;52.076;113.488;2023-03-13T16:26:10;45.78;;;14.93;;
60241;SDS011;46103;52.076;113.488;2023-03-13T16:29:19;41.05;;;16.42;;
60241;SDS011;46103;52.076;113.488;2023-03-13T16:32:23;41.45;;;17.58;;
60241;SDS011;46103;52.076;113.488;2023-03-13T16:35:27;58.35;;;16.20;;
60241;SDS011;46103;52.076;113.488;2023-03-13T16:38:32;56.67;;;17.58;;
60241;SDS011;46103;52.076;113.488;2023-03-13T16:41:36;40.25;;;14.15;;
60241;SDS011;46103;52.076;113.488;2023-03-13T16:44:40;56.63;;;18.45;;
60241;SDS011;46103;52.076;113.488;2023-03-13T16:47:44;50.55;;;17.40;;
60241;SDS011;46103;52.076;113.488;2023-03-13T16:50:48;50.67;;;16.65;;
60241;SDS011;46103;52.076;113.488;2023-03-13T16:53:52;49.00;;;17.00;;
60241;SDS011;46103;52.076;113.488;2023-03-13T16:56:57;47.05;;;16.02;;
60241;SDS011;46103;52.076;113.488;2023-03-13T17:00:05;48.75;;;15.23;;
60241;SDS011;46103;52.076;113.488;2023-03-13T17:03:23;37.65;;;13.90;;
60241;SDS011;46103;52.076;113.488;2023-03-13T17:06:27;36.10;;;13.95;;
60241;SDS011;46103;52.076;113.488;2023-03-13T17:09:35;32.13;;;10.45;;
60241;SDS011;46103;52.076;113.488;2023-03-13T17:12:39;26.92;;;8.13;;
60241;SDS011;46103;52.076;113.488;2023-03-13T17:15:43;26.75;;;8.98;;
60241;SDS011;46103;52.076;113.488;2023-03-13T17:18:47;31.67;;;11.18;;
60241;SDS011;46103;52.076;113.488;2023-03-13T17:21:53;33.75;;;10.20;;
60241;SDS011;46103;52.076;113.488;2023-03-13T17:24:57;22.25;;;9.38;;
60241;SDS011;46103;52.076;113.488;2023-03-13T17:28:01;22.58;;;7.25;;
60241;SDS011;46103;52.076;113.488;2023-03-13T17:31:06;23.02;;;8.80;;
60241;SDS011;46103;52.076;113.488;2023-03-13T17:34:12;17.45;;;7.78;;
60241;SDS011;46103;52.076;113.488;2023-03-13T17:37:18;14.85;;;5.22;;
60241;SDS011;46103;52.076;113.488;2023-03-13T17:40:25;14.90;;;5.93;;
60241;SDS011;46103;52.076;113.488;2023-03-13T17:43:30;28.35;;;7.10;;
60241;SDS011;46103;52.076;113.488;2023-03-13T17:46:38;23.60;;;7.88;;
60241;SDS011;46103;52.076;113.488;2023-03-13T17:49:44;20.25;;;8.05;;
60241;SDS011;46103;52.076;113.488;2023-03-13T17:52:49;17.63;;;6.72;;
60241;SDS011;46103;52.076;113.488;2023-03-13T17:55:53;15.23;;;5.50;;
60241;SDS011;46103;52.076;113.488;2023-03-13T17:58:58;21.63;;;7.35;;
60241;SDS011;46103;52.076;113.488;2023-03-13T18:02:02;13.23;;;5.72;;
60241;SDS011;46103;52.076;113.488;2023-03-13T18:05:06;17.77;;;4.88;;
60241;SDS011;46103;52.076;113.488;2023-03-13T18:08:10;13.77;;;5.38;;
60241;SDS011;46103;52.076;113.488;2023-03-13T18:11:14;8.27;;;4.00;;
60241;SDS011;46103;52.076;113.488;2023-03-13T18:14:18;10.25;;;3.30;;
60241;SDS011;46103;52.076;113.488;2023-03-13T18:17:23;6.80;;;3.22;;
60241;SDS011;46103;52.076;113.488;2023-03-13T18:20:29;6.30;;;2.58;;
60241;SDS011;46103;52.076;113.488;2023-03-13T18:23:34;15.63;;;5.47;;
60241;SDS011;46103;52.076;113.488;2023-03-13T18:26:39;12.32;;;4.20;;
60241;SDS011;46103;52.076;113.488;2023-03-13T18:29:45;15.63;;;4.78;;
60241;SDS011;46103;52.076;113.488;2023-03-13T18:32:50;7.43;;;3.00;;
60241;SDS011;46103;52.076;113.488;2023-03-13T18:35:55;2.92;;;1.45;;
60241;SDS011;46103;52.076;113.488;2023-03-13T18:38:58;3.10;;;1.52;;
60241;SDS011;46103;52.076;113.488;2023-03-13T18:42:02;1.05;;;0.85;;
60241;SDS011;46103;52.076;113.488;2023-03-13T18:45:06;1.73;;;0.98;;
60241;SDS011;46103;52.076;113.488;2023-03-13T18:48:12;1.52;;;1.10;;
60241;SDS011;46103;52.076;113.488;2023-03-13T18:51:16;4.15;;;1.08;;
60241;SDS011;46103;52.076;113.488;2023-03-13T18:54:21;1.30;;;0.93;;
60241;SDS011;46103;52.076;113.488;2023-03-13T18:57:25;1.10;;;0.80;;
60241;SDS011;46103;52.076;113.488;2023-03-13T19:00:29;2.95;;;1.05;;
60241;SDS011;46103;52.076;113.488;2023-03-13T19:03:33;1.45;;;0.90;;
60241;SDS011;46103;52.076;113.488;2023-03-13T19:06:37;2.50;;;1.20;;
60241;SDS011;46103;52.076;113.488;2023-03-13T19:09:42;2.08;;;1.10;;
60241;SDS011;46103;52.076;113.488;2023-03-13T19:12:48;2.33;;;1.17;;
60241;SDS011;46103;52.076;113.488;2023-03-13T19:15:52;2.72;;;1.08;;
60241;SDS011;46103;52.076;113.488;2023-03-13T19:18:56;5.05;;;1.52;;
60241;SDS011;46103;52.076;113.488;2023-03-13T19:22:00;1.75;;;0.82;;
60241;SDS011;46103;52.076;113.488;2023-03-13T19:25:05;2.90;;;1.65;;
60241;SDS011;46103;52.076;113.488;2023-03-13T19:28:09;2.72;;;1.13;;
60241;SDS011;46103;52.076;113.488;2023-03-13T19:31:13;2.20;;;1.42;;
60241;SDS011;46103;52.076;113.488;2023-03-13T19:34:19;5.60;;;1.80;;
60241;SDS011;46103;52.076;113.488;2023-03-13T19:37:23;3.85;;;1.50;;
60241;SDS011;46103;52.076;113.488;2023-03-13T19:40:27;2.08;;;1.08;;
60241;SDS011;46103;52.076;113.488;2023-03-13T19:43:31;1.92;;;1.50;;
60241;SDS011;46103;52.076;113.488;2023-03-13T19:46:35;1.83;;;1.00;;
60241;SDS011;46103;52.076;113.488;2023-03-13T19:49:41;2.03;;;0.90;;
60241;SDS011;46103;52.076;113.488;2023-03-13T19:52:47;2.38;;;1.10;;
60241;SDS011;46103;52.076;113.488;2023-03-13T19:55:51;0.88;;;0.88;;
60241;SDS011;46103;52.076;113.488;2023-03-13T19:58:59;1.73;;;1.20;;
60241;SDS011;46103;52.076;113.488;2023-03-13T20:02:09;1.08;;;0.93;;
60241;SDS011;46103;52.076;113.488;2023-03-13T20:05:13;2.38;;;1.02;;
60241;SDS011;46103;52.076;113.488;2023-03-13T20:08:16;2.17;;;1.30;;
60241;SDS011;46103;52.076;113.488;2023-03-13T20:11:19;1.92;;;1.30;;
60241;SDS011;46103;52.076;113.488;2023-03-13T20:14:23;0.95;;;0.80;;
60241;SDS011;46103;52.076;113.488;2023-03-13T20:17:26;1.17;;;0.90;;
60241;SDS011;46103;52.076;113.488;2023-03-13T20:20:30;1.00;;;0.90;;
60241;SDS011;46103;52.076;113.488;2023-03-13T20:23:33;1.73;;;1.02;;
60241;SDS011;46103;52.076;113.488;2023-03-13T20:26:38;2.13;;;1.30;;
60241;SDS011;46103;52.076;113.488;2023-03-13T20:29:41;2.38;;;1.50;;